Terminal Aerodrome Forecast
Issued by NWS

Home | Current Version | Previous Version | Text Only | Print | Product List | Glossary On
Versions: 1 2 3 4 5 6 7 8 9 10 11 12 13 14 15 16 17 18 19 20 21 22 23 24 25 26 27 28 29
000
FTUS43 KGRB 251700
TAFAUW
TAF
KAUW 251724Z 2518/2618 29015G23KT P6SM SCT120
     FM260000 29009KT P6SM SKC WS015/31035KT
     FM260500 30004KT P6SM SKC WS015/33030KT
     FM260900 31003KT P6SM SKC
     FM261400 30004KT P6SM SCT250=

USA.gov is the U.S. government's official web portal to all federal, state and local government web resources and services.